sensor_id;sensor_type;location;lat;lon;timestamp;pressure;altitude;pressure_sealevel;temperature;humidity
67457;BME280;54319;52.038;4.640;2023-04-10T00:01:04;102201.69;;;8.82;70.89
67457;BME280;54319;52.038;4.640;2023-04-10T00:03:30;102193.53;;;8.82;71.25
67457;BME280;54319;52.038;4.640;2023-04-10T00:05:59;102176.53;;;8.80;70.89
67457;BME280;54319;52.038;4.640;2023-04-10T00:08:26;102177.53;;;8.79;71.14
67457;BME280;54319;52.038;4.640;2023-04-10T00:10:52;102173.81;;;8.80;71.12
67457;BME280;54319;52.038;4.640;2023-04-10T00:13:20;102171.41;;;8.77;71.61
67457;BME280;54319;52.038;4.640;2023-04-10T00:15:47;102151.69;;;8.75;71.25
67457;BME280;54319;52.038;4.640;2023-04-10T00:18:15;102145.38;;;8.75;70.33
67457;BME280;54319;52.038;4.640;2023-04-10T00:20:41;102155.09;;;8.86;71.33
67457;BME280;54319;52.038;4.640;2023-04-10T00:23:08;102153.88;;;8.72;71.33
67457;BME280;54319;52.038;4.640;2023-04-10T00:25:35;102157.47;;;8.72;71.72
67457;BME280;54319;52.038;4.640;2023-04-10T00:28:02;102150.63;;;8.68;72.01
67457;BME280;54319;52.038;4.640;2023-04-10T00:30:28;102152.00;;;8.64;72.07
67457;BME280;54319;52.038;4.640;2023-04-10T00:32:55;102161.50;;;8.60;72.19
67457;BME280;54319;52.038;4.640;2023-04-10T00:35:23;102156.59;;;8.55;72.64
67457;BME280;54319;52.038;4.640;2023-04-10T00:37:49;102152.47;;;8.51;73.00
67457;BME280;54319;52.038;4.640;2023-04-10T00:40:16;102125.22;;;8.43;72.57
67457;BME280;54319;52.038;4.640;2023-04-10T00:42:44;102140.75;;;8.50;73.09
67457;BME280;54319;52.038;4.640;2023-04-10T00:45:10;102141.41;;;8.44;73.46
67457;BME280;54319;52.038;4.640;2023-04-10T00:47:37;102132.53;;;8.34;73.81
67457;BME280;54319;52.038;4.640;2023-04-10T00:50:05;102130.31;;;8.37;73.60
67457;BME280;54319;52.038;4.640;2023-04-10T00:52:34;102133.53;;;8.33;74.02
67457;BME280;54319;52.038;4.640;2023-04-10T00:55:01;102128.09;;;8.33;74.16
67457;BME280;54319;52.038;4.640;2023-04-10T00:57:28;102125.88;;;8.28;74.38
67457;BME280;54319;52.038;4.640;2023-04-10T00:59:54;102123.50;;;8.25;74.28
67457;BME280;54319;52.038;4.640;2023-04-10T01:02:21;102129.09;;;8.23;74.54
67457;BME280;54319;52.038;4.640;2023-04-10T01:04:48;102113.44;;;8.17;74.59
67457;BME280;54319;52.038;4.640;2023-04-10T01:07:23;102101.22;;;8.21;74.25
67457;BME280;54319;52.038;4.640;2023-04-10T01:09:58;102085.91;;;8.12;74.47
67457;BME280;54319;52.038;4.640;2023-04-10T01:12:40;102042.66;;;7.84;74.60
67457;BME280;54319;52.038;4.640;2023-04-10T01:15:11;102085.03;;;8.03;74.98
67457;BME280;54319;52.038;4.640;2023-04-10T01:17:42;102089.97;;;8.08;75.43
67457;BME280;54319;52.038;4.640;2023-04-10T01:20:12;102093.03;;;8.05;75.65
67457;BME280;54319;52.038;4.640;2023-04-10T01:22:48;102075.34;;;8.01;75.75
67457;BME280;54319;52.038;4.640;2023-04-10T01:25:37;102078.22;;;7.99;75.86
67457;BME280;54319;52.038;4.640;2023-04-10T01:31:12;102068.34;;;7.90;76.50
67457;BME280;54319;52.038;4.640;2023-04-10T01:33:45;102075.16;;;7.94;76.58
67457;BME280;54319;52.038;4.640;2023-04-10T01:36:19;102077.66;;;7.87;76.32
67457;BME280;54319;52.038;4.640;2023-04-10T01:38:48;102073.59;;;7.91;76.61
67457;BME280;54319;52.038;4.640;2023-04-10T01:41:17;102039.94;;;7.76;76.48
67457;BME280;54319;52.038;4.640;2023-04-10T01:43:47;102067.47;;;7.89;76.72
67457;BME280;54319;52.038;4.640;2023-04-10T01:46:17;102069.03;;;7.92;76.68
67457;BME280;54319;52.038;4.640;2023-04-10T01:48:45;102059.50;;;7.88;77.05
67457;BME280;54319;52.038;4.640;2023-04-10T01:51:12;102063.91;;;7.80;77.63
67457;BME280;54319;52.038;4.640;2023-04-10T01:53:42;102059.97;;;7.75;77.93
67457;BME280;54319;52.038;4.640;2023-04-10T01:56:09;102059.78;;;7.76;78.18
67457;BME280;54319;52.038;4.640;2023-04-10T01:58:36;102059.63;;;7.78;77.98
67457;BME280;54319;52.038;4.640;2023-04-10T02:01:03;102056.56;;;7.73;78.59
67457;BME280;54319;52.038;4.640;2023-04-10T02:03:31;102010.56;;;7.36;79.07
67457;BME280;54319;52.038;4.640;2023-04-10T02:06:03;102053.47;;;7.67;79.05
67457;BME280;54319;52.038;4.640;2023-04-10T02:08:35;102047.50;;;7.64;78.96
67457;BME280;54319;52.038;4.640;2023-04-10T02:11:10;102046.13;;;7.60;79.70
67457;BME280;54319;52.038;4.640;2023-04-10T02:13:39;102055.84;;;7.62;79.82
67457;BME280;54319;52.038;4.640;2023-04-10T02:16:07;102055.16;;;7.60;79.79
67457;BME280;54319;52.038;4.640;2023-04-10T02:18:35;102054.28;;;7.60;79.92
67457;BME280;54319;52.038;4.640;2023-04-10T02:21:02;102052.75;;;7.57;80.30
67457;BME280;54319;52.038;4.640;2023-04-10T02:23:29;102053.59;;;7.58;80.55
67457;BME280;54319;52.038;4.640;2023-04-10T02:25:56;102049.34;;;7.55;80.44
67457;BME280;54319;52.038;4.640;2023-04-10T02:28:22;102048.81;;;7.51;80.92
67457;BME280;54319;52.038;4.640;2023-04-10T02:30:50;102053.25;;;7.52;81.21
67457;BME280;54319;52.038;4.640;2023-04-10T02:33:16;102050.53;;;7.52;81.07
67457;BME280;54319;52.038;4.640;2023-04-10T02:35:44;102046.94;;;7.52;81.21
67457;BME280;54319;52.038;4.640;2023-04-10T02:38:11;102049.53;;;7.62;80.42
67457;BME280;54319;52.038;4.640;2023-04-10T02:40:38;102054.13;;;7.61;80.59
67457;BME280;54319;52.038;4.640;2023-04-10T02:43:06;102061.28;;;7.62;80.56
67457;BME280;54319;52.038;4.640;2023-04-10T02:45:32;102061.41;;;7.61;80.66
67457;BME280;54319;52.038;4.640;2023-04-10T02:47:59;102062.63;;;7.58;80.29
67457;BME280;54319;52.038;4.640;2023-04-10T02:50:25;102058.72;;;7.61;80.36
67457;BME280;54319;52.038;4.640;2023-04-10T02:52:55;102059.91;;;7.58;80.80
67457;BME280;54319;52.038;4.640;2023-04-10T02:55:21;102066.38;;;7.65;80.41
67457;BME280;54319;52.038;4.640;2023-04-10T02:57:48;102066.38;;;7.65;80.56
67457;BME280;54319;52.038;4.640;2023-04-10T03:00:15;102059.41;;;7.63;80.64
67457;BME280;54319;52.038;4.640;2023-04-10T03:02:43;102061.41;;;7.61;80.32
67457;BME280;54319;52.038;4.640;2023-04-10T03:05:10;102053.47;;;7.67;80.19
67457;BME280;54319;52.038;4.640;2023-04-10T03:07:36;101994.06;;;7.30;80.07
67457;BME280;54319;52.038;4.640;2023-04-10T03:10:05;102054.66;;;7.65;80.09
67457;BME280;54319;52.038;4.640;2023-04-10T03:12:32;102041.75;;;7.67;80.14
67457;BME280;54319;52.038;4.640;2023-04-10T03:14:59;102047.03;;;7.68;79.92
67457;BME280;54319;52.038;4.640;2023-04-10T03:17:25;102042.94;;;7.64;80.32
67457;BME280;54319;52.038;4.640;2023-04-10T03:19:52;102050.09;;;7.65;79.98
67457;BME280;54319;52.038;4.640;2023-04-10T03:22:19;102041.25;;;7.63;80.15
67457;BME280;54319;52.038;4.640;2023-04-10T03:24:45;102038.69;;;7.62;80.55
67457;BME280;54319;52.038;4.640;2023-04-10T03:27:14;102032.41;;;7.61;80.39
67457;BME280;54319;52.038;4.640;2023-04-10T03:29:41;102032.75;;;7.58;80.33
67457;BME280;54319;52.038;4.640;2023-04-10T03:32:08;102038.19;;;7.58;80.13
67457;BME280;54319;52.038;4.640;2023-04-10T03:34:35;102029.16;;;7.58;79.99
67457;BME280;54319;52.038;4.640;2023-04-10T03:37:02;102027.31;;;7.58;80.05
67457;BME280;54319;52.038;4.640;2023-04-10T03:39:28;102022.19;;;7.55;80.29
67457;BME280;54319;52.038;4.640;2023-04-10T03:41:55;102019.84;;;7.60;79.66
67457;BME280;54319;52.038;4.640;2023-04-10T03:44:23;102008.31;;;7.58;79.75
67457;BME280;54319;52.038;4.640;2023-04-10T03:46:50;102011.53;;;7.62;79.63
67457;BME280;54319;52.038;4.640;2023-04-10T03:49:17;102007.44;;;7.58;79.70
67457;BME280;54319;52.038;4.640;2023-04-10T03:51:43;102008.31;;;7.58;79.42
67457;BME280;54319;52.038;4.640;2023-04-10T03:54:10;102003.91;;;7.65;78.97
67457;BME280;54319;52.038;4.640;2023-04-10T03:56:37;101994.06;;;7.64;79.08
67457;BME280;54319;52.038;4.640;2023-04-10T03:59:03;101993.19;;;7.64;78.80
67457;BME280;54319;52.038;4.640;2023-04-10T04:01:31;101986.94;;;7.63;78.63
67457;BME280;54319;52.038;4.640;2023-04-10T04:03:58;101992.19;;;7.73;77.97
67457;BME280;54319;52.038;4.640;2023-04-10T04:06:24;101986.28;;;7.78;77.86
67457;BME280;54319;52.038;4.640;2023-04-10T04:08:51;101987.66;;;7.82;77.19
67457;BME280;54319;52.038;4.640;2023-04-10T04:11:18;101995.31;;;7.87;77.19
67457;BME280;54319;52.038;4.640;2023-04-10T04:13:44;101985.97;;;7.89;76.62
67457;BME280;54319;52.038;4.640;2023-04-10T04:16:11;101985.00;;;7.99;75.57
67457;BME280;54319;52.038;4.640;2023-04-10T04:18:39;101978.34;;;8.09;74.70
67457;BME280;54319;52.038;4.640;2023-04-10T04:21:06;101974.13;;;8.07;74.58
67457;BME280;54319;52.038;4.640;2023-04-10T04:23:33;101982.78;;;8.10;74.54
67457;BME280;54319;52.038;4.640;2023-04-10T04:26:00;101972.09;;;8.09;74.82
67457;BME280;54319;52.038;4.640;2023-04-10T04:28:28;101979.72;;;8.14;73.93
67457;BME280;54319;52.038;4.640;2023-04-10T04:30:54;101969.38;;;8.09;74.23
67457;BME280;54319;52.038;4.640;2023-04-10T04:33:21;101969.03;;;8.12;74.12
67457;BME280;54319;52.038;4.640;2023-04-10T04:35:49;101963.94;;;8.09;74.17
67457;BME280;54319;52.038;4.640;2023-04-10T04:38:16;101961.56;;;8.14;73.93
67457;BME280;54319;52.038;4.640;2023-04-10T04:40:44;101911.25;;;7.85;73.79
67457;BME280;54319;52.038;4.640;2023-04-10T04:43:11;101957.28;;;8.11;74.56
67457;BME280;54319;52.038;4.640;2023-04-10T04:45:37;101959.19;;;8.11;74.28
67457;BME280;54319;52.038;4.640;2023-04-10T04:48:04;101953.91;;;8.09;74.32
67457;BME280;54319;52.038;4.640;2023-04-10T04:50:31;101952.19;;;8.08;74.49
67457;BME280;54319;52.038;4.640;2023-04-10T04:52:59;101946.09;;;8.06;74.73
67457;BME280;54319;52.038;4.640;2023-04-10T04:55:25;101890.88;;;7.73;74.60
67457;BME280;54319;52.038;4.640;2023-04-10T04:57:52;101950.34;;;8.09;74.39
67457;BME280;54319;52.038;4.640;2023-04-10T05:00:18;101946.28;;;8.05;74.96
67457;BME280;54319;52.038;4.640;2023-04-10T05:02:45;101952.72;;;8.04;75.24
67457;BME280;54319;52.038;4.640;2023-04-10T05:05:12;101949.66;;;8.07;74.69
67457;BME280;54319;52.038;4.640;2023-04-10T05:07:38;101949.00;;;8.13;74.48
67457;BME280;54319;52.038;4.640;2023-04-10T05:10:07;101943.22;;;8.08;74.37
67457;BME280;54319;52.038;4.640;2023-04-10T05:12:34;101916.38;;;7.96;74.79
67457;BME280;54319;52.038;4.640;2023-04-10T05:15:00;101923.66;;;7.96;75.03
67457;BME280;54319;52.038;4.640;2023-04-10T05:17:27;101947.28;;;8.12;74.66
67457;BME280;54319;52.038;4.640;2023-04-10T05:19:54;101939.13;;;8.04;75.13
67457;BME280;54319;52.038;4.640;2023-04-10T05:22:20;101951.69;;;8.05;75.50
67457;BME280;54319;52.038;4.640;2023-04-10T05:24:47;101945.41;;;8.04;75.53
67457;BME280;54319;52.038;4.640;2023-04-10T05:27:16;101949.31;;;8.02;75.80
67457;BME280;54319;52.038;4.640;2023-04-10T05:29:43;101948.31;;;8.03;75.32
67457;BME280;54319;52.038;4.640;2023-04-10T05:32:09;101956.47;;;8.03;75.60
67457;BME280;54319;52.038;4.640;2023-04-10T05:34:36;101953.75;;;8.03;75.67
67457;BME280;54319;52.038;4.640;2023-04-10T05:37:02;101957.97;;;8.05;75.34
67457;BME280;54319;52.038;4.640;2023-04-10T05:39:29;101933.34;;;7.99;75.32
67457;BME280;54319;52.038;4.640;2023-04-10T05:41:56;101954.09;;;8.16;74.93
67457;BME280;54319;52.038;4.640;2023-04-10T05:44:24;101953.41;;;8.14;75.24
67457;BME280;54319;52.038;4.640;2023-04-10T05:46:51;101953.75;;;8.19;75.09
67457;BME280;54319;52.038;4.640;2023-04-10T05:49:18;101945.78;;;8.18;75.32
67457;BME280;54319;52.038;4.640;2023-04-10T05:51:44;101938.78;;;8.23;74.92
67457;BME280;54319;52.038;4.640;2023-04-10T05:54:14;101937.09;;;8.22;75.29
67457;BME280;54319;52.038;4.640;2023-04-10T05:56:41;101939.13;;;8.20;75.92
67457;BME280;54319;52.038;4.640;2023-04-10T05:59:07;101932.19;;;8.18;76.43
67457;BME280;54319;52.038;4.640;2023-04-10T06:01:35;101925.19;;;8.23;76.03
67457;BME280;54319;52.038;4.640;2023-04-10T06:04:02;101929.47;;;8.26;75.75
67457;BME280;54319;52.038;4.640;2023-04-10T06:06:29;101914.50;;;8.22;75.47
67457;BME280;54319;52.038;4.640;2023-04-10T06:08:56;101915.00;;;8.25;75.76
67457;BME280;54319;52.038;4.640;2023-04-10T06:11:23;101911.94;;;8.29;75.73
67457;BME280;54319;52.038;4.640;2023-04-10T06:13:49;101922.47;;;8.15;76.74
67457;BME280;54319;52.038;4.640;2023-04-10T06:16:16;101923.34;;;8.24;75.91
67457;BME280;54319;52.038;4.640;2023-04-10T06:18:44;101911.09;;;8.36;74.84
67457;BME280;54319;52.038;4.640;2023-04-10T06:21:12;101909.75;;;8.24;75.66
67457;BME280;54319;52.038;4.640;2023-04-10T06:23:38;101908.38;;;8.28;75.63
67457;BME280;54319;52.038;4.640;2023-04-10T06:26:06;101899.38;;;8.28;75.38
67457;BME280;54319;52.038;4.640;2023-04-10T06:28:33;101890.38;;;8.35;75.18
67457;BME280;54319;52.038;4.640;2023-04-10T06:30:59;101858.09;;;8.24;74.92
67457;BME280;54319;52.038;4.640;2023-04-10T06:33:27;101882.72;;;8.39;74.97
67457;BME280;54319;52.038;4.640;2023-04-10T06:35:55;101876.59;;;8.37;74.06
67457;BME280;54319;52.038;4.640;2023-04-10T06:38:22;101872.19;;;8.44;74.14
67457;BME280;54319;52.038;4.640;2023-04-10T06:40:49;101866.06;;;8.50;73.55
67457;BME280;54319;52.038;4.640;2023-04-10T06:43:15;101853.13;;;8.44;73.65
67457;BME280;54319;52.038;4.640;2023-04-10T06:45:42;101865.22;;;8.58;73.57
67457;BME280;54319;52.038;4.640;2023-04-10T06:48:09;101857.19;;;8.73;73.07
67457;BME280;54319;52.038;4.640;2023-04-10T06:50:35;101851.75;;;8.73;72.90
67457;BME280;54319;52.038;4.640;2023-04-10T06:53:03;101849.16;;;8.80;72.84
67457;BME280;54319;52.038;4.640;2023-04-10T06:55:30;101841.13;;;8.87;72.16
67457;BME280;54319;52.038;4.640;2023-04-10T06:57:56;101837.69;;;8.93;72.21
67457;BME280;54319;52.038;4.640;2023-04-10T07:00:23;101839.72;;;8.99;72.51
67457;BME280;54319;52.038;4.640;2023-04-10T07:02:50;101833.28;;;8.92;71.94
67457;BME280;54319;52.038;4.640;2023-04-10T07:05:16;101831.56;;;8.99;72.30
67457;BME280;54319;52.038;4.640;2023-04-10T07:07:43;101827.09;;;9.06;72.09
67457;BME280;54319;52.038;4.640;2023-04-10T07:10:14;101831.97;;;9.19;71.86
67457;BME280;54319;52.038;4.640;2023-04-10T07:12:40;101840.63;;;9.23;71.80
67457;BME280;54319;52.038;4.640;2023-04-10T07:15:08;101826.81;;;9.24;71.72
67457;BME280;54319;52.038;4.640;2023-04-10T07:17:36;101823.94;;;9.26;71.28
67457;BME280;54319;52.038;4.640;2023-04-10T07:20:04;101825.41;;;9.37;70.90
67457;BME280;54319;52.038;4.640;2023-04-10T07:22:32;101824.22;;;9.31;70.73
67457;BME280;54319;52.038;4.640;2023-04-10T07:24:59;101819.44;;;9.33;71.19
67457;BME280;54319;52.038;4.640;2023-04-10T07:27:27;101810.56;;;9.39;70.95
67457;BME280;54319;52.038;4.640;2023-04-10T07:29:54;101819.44;;;9.33;70.17
67457;BME280;54319;52.038;4.640;2023-04-10T07:32:21;101821.44;;;9.39;70.59
67457;BME280;54319;52.038;4.640;2023-04-10T07:34:48;101802.69;;;9.45;70.53
67457;BME280;54319;52.038;4.640;2023-04-10T07:37:15;101800.81;;;9.45;70.48
67457;BME280;54319;52.038;4.640;2023-04-10T07:39:42;101808.81;;;9.47;69.91
67457;BME280;54319;52.038;4.640;2023-04-10T07:42:09;101790.53;;;9.55;70.05
67457;BME280;54319;52.038;4.640;2023-04-10T07:44:37;101806.63;;;9.65;70.23
67457;BME280;54319;52.038;4.640;2023-04-10T07:47:04;101786.16;;;9.69;69.73
67457;BME280;54319;52.038;4.640;2023-04-10T07:49:30;101778.94;;;9.77;70.24
67457;BME280;54319;52.038;4.640;2023-04-10T07:51:57;101784.34;;;9.85;69.22
67457;BME280;54319;52.038;4.640;2023-04-10T07:54:23;101777.41;;;9.97;69.07
67457;BME280;54319;52.038;4.640;2023-04-10T07:56:50;101772.25;;;10.18;69.01
67457;BME280;54319;52.038;4.640;2023-04-10T07:59:17;101768.38;;;10.12;68.15
67457;BME280;54319;52.038;4.640;2023-04-10T08:01:45;101723.69;;;9.83;68.80
67457;BME280;54319;52.038;4.640;2023-04-10T08:04:13;101763.97;;;10.26;68.95
67457;BME280;54319;52.038;4.640;2023-04-10T08:06:39;101742.06;;;10.19;68.73
67457;BME280;54319;52.038;4.640;2023-04-10T08:09:06;101747.13;;;10.22;68.16
67457;BME280;54319;52.038;4.640;2023-04-10T08:11:34;101699.38;;;9.96;68.75
67457;BME280;54319;52.038;4.640;2023-04-10T08:14:01;101731.16;;;10.19;68.35
67457;BME280;54319;52.038;4.640;2023-04-10T08:16:31;101746.69;;;10.34;68.60
67457;BME280;54319;52.038;4.640;2023-04-10T08:19:00;101740.00;;;10.36;67.79
67457;BME280;54319;52.038;4.640;2023-04-10T08:21:28;101743.09;;;10.33;67.99
67457;BME280;54319;52.038;4.640;2023-04-10T08:23:57;101740.84;;;10.37;67.75
67457;BME280;54319;52.038;4.640;2023-04-10T08:26:25;101746.31;;;10.37;67.79
67457;BME280;54319;52.038;4.640;2023-04-10T08:28:54;101732.19;;;10.33;68.14
67457;BME280;54319;52.038;4.640;2023-04-10T08:31:22;101727.88;;;10.39;68.35
67457;BME280;54319;52.038;4.640;2023-04-10T08:33:49;101724.78;;;10.57;68.12
67457;BME280;54319;52.038;4.640;2023-04-10T08:36:17;101724.09;;;10.70;67.27
67457;BME280;54319;52.038;4.640;2023-04-10T08:38:44;101721.44;;;10.77;67.09
67457;BME280;54319;52.038;4.640;2023-04-10T08:41:14;101723.59;;;10.81;66.65
67457;BME280;54319;52.038;4.640;2023-04-10T08:43:41;101720.75;;;10.90;66.81
67457;BME280;54319;52.038;4.640;2023-04-10T08:46:08;101716.31;;;10.89;66.92
67457;BME280;54319;52.038;4.640;2023-04-10T08:48:38;101712.91;;;11.02;66.42
67457;BME280;54319;52.038;4.640;2023-04-10T08:51:13;101699.66;;;11.20;66.20
67457;BME280;54319;52.038;4.640;2023-04-10T08:53:43;101642.31;;;10.98;65.39
67457;BME280;54319;52.038;4.640;2023-04-10T08:56:11;101651.88;;;11.09;64.81
67457;BME280;54319;52.038;4.640;2023-04-10T08:58:40;101688.63;;;11.35;65.69
67457;BME280;54319;52.038;4.640;2023-04-10T09:01:08;101685.53;;;11.38;64.12
67457;BME280;54319;52.038;4.640;2023-04-10T09:03:35;101688.63;;;11.57;64.82
67457;BME280;54319;52.038;4.640;2023-04-10T09:06:02;101680.72;;;11.69;63.78
67457;BME280;54319;52.038;4.640;2023-04-10T09:08:30;101683.22;;;11.70;64.42
67457;BME280;54319;52.038;4.640;2023-04-10T09:10:58;101676.78;;;11.78;63.91
67457;BME280;54319;52.038;4.640;2023-04-10T09:13:42;101674.91;;;11.79;62.63
67457;BME280;54319;52.038;4.640;2023-04-10T09:16:11;101675.53;;;11.81;62.55
67457;BME280;54319;52.038;4.640;2023-04-10T09:18:43;101671.91;;;11.73;62.84
67457;BME280;54319;52.038;4.640;2023-04-10T09:21:11;101653.53;;;11.61;62.62
67457;BME280;54319;52.038;4.640;2023-04-10T09:23:40;101657.47;;;11.80;62.54
67457;BME280;54319;52.038;4.640;2023-04-10T09:26:26;101645.53;;;11.94;62.40
67457;BME280;54319;52.038;4.640;2023-04-10T09:28:56;101650.69;;;12.11;61.66
67457;BME280;54319;52.038;4.640;2023-04-10T09:31:31;101650.69;;;12.11;60.61
67457;BME280;54319;52.038;4.640;2023-04-10T09:34:10;101594.34;;;11.75;61.17
67457;BME280;54319;52.038;4.640;2023-04-10T09:36:37;101615.63;;;11.86;61.22
67457;BME280;54319;52.038;4.640;2023-04-10T09:39:05;101634.28;;;12.11;61.54
67457;BME280;54319;52.038;4.640;2023-04-10T09:41:33;101631.56;;;12.11;60.92
67457;BME280;54319;52.038;4.640;2023-04-10T09:44:07;101631.41;;;12.19;61.11
67457;BME280;54319;52.038;4.640;2023-04-10T09:46:34;101617.53;;;12.27;60.82
67457;BME280;54319;52.038;4.640;2023-04-10T09:49:01;101631.41;;;12.19;60.55
67457;BME280;54319;52.038;4.640;2023-04-10T09:51:30;101632.69;;;12.30;60.83
67457;BME280;54319;52.038;4.640;2023-04-10T09:53:58;101636.47;;;12.29;60.83
67457;BME280;54319;52.038;4.640;2023-04-10T09:56:25;101630.31;;;12.13;60.67
67457;BME280;54319;52.038;4.640;2023-04-10T09:58:56;101619.00;;;12.23;60.88
67457;BME280;54319;52.038;4.640;2023-04-10T10:01:25;101612.72;;;12.29;60.54
67457;BME280;54319;52.038;4.640;2023-04-10T10:03:53;101599.03;;;12.29;60.54
67457;BME280;54319;52.038;4.640;2023-04-10T10:06:20;101602.88;;;12.49;60.48
67457;BME280;54319;52.038;4.640;2023-04-10T10:08:47;101605.41;;;12.50;61.07
67457;BME280;54319;52.038;4.640;2023-04-10T10:11:17;101602.69;;;12.50;60.12
67457;BME280;54319;52.038;4.640;2023-04-10T10:13:48;101595.75;;;12.54;60.11
67457;BME280;54319;52.038;4.640;2023-04-10T10:16:20;101587.75;;;12.59;60.30
67457;BME280;54319;52.038;4.640;2023-04-10T10:18:54;101585.03;;;12.73;59.53
67457;BME280;54319;52.038;4.640;2023-04-10T10:21:22;101578.09;;;12.97;58.58
67457;BME280;54319;52.038;4.640;2023-04-10T10:23:50;101576.81;;;13.07;59.11
67457;BME280;54319;52.038;4.640;2023-04-10T10:26:20;101571.34;;;13.27;58.86
67457;BME280;54319;52.038;4.640;2023-04-10T10:28:48;101571.75;;;13.30;58.07
67457;BME280;54319;52.038;4.640;2023-04-10T10:31:18;101575.78;;;13.48;57.61
67457;BME280;54319;52.038;4.640;2023-04-10T10:33:46;101561.41;;;13.66;57.57
67457;BME280;54319;52.038;4.640;2023-04-10T10:36:14;101557.75;;;13.79;57.47
67457;BME280;54319;52.038;4.640;2023-04-10T10:38:57;101552.06;;;13.81;57.31
67457;BME280;54319;52.038;4.640;2023-04-10T10:41:33;101532.91;;;13.67;57.28
67457;BME280;54319;52.038;4.640;2023-04-10T10:44:07;101515.16;;;13.77;57.68
67457;BME280;54319;52.038;4.640;2023-04-10T10:46:43;101508.38;;;13.86;57.13
67457;BME280;54319;52.038;4.640;2023-04-10T10:49:11;101516.34;;;13.94;57.51
67457;BME280;54319;52.038;4.640;2023-04-10T10:51:45;101505.50;;;14.13;56.77
67457;BME280;54319;52.038;4.640;2023-04-10T10:54:29;101494.34;;;14.08;56.63
67457;BME280;54319;52.038;4.640;2023-04-10T10:56:57;101489.88;;;14.45;56.52
67457;BME280;54319;52.038;4.640;2023-04-10T10:59:54;101483.94;;;14.48;55.31
67457;BME280;54319;52.038;4.640;2023-04-10T11:02:25;101487.25;;;14.57;55.21
67457;BME280;54319;52.038;4.640;2023-04-10T11:04:52;101481.56;;;14.84;54.57
67457;BME280;54319;52.038;4.640;2023-04-10T11:07:18;101478.22;;;15.01;54.94
67457;BME280;54319;52.038;4.640;2023-04-10T11:09:49;101478.72;;;15.16;54.46
67457;BME280;54319;52.038;4.640;2023-04-10T11:12:20;101452.22;;;15.22;54.53
67457;BME280;54319;52.038;4.640;2023-04-10T11:14:57;101463.44;;;15.58;53.55
67457;BME280;54319;52.038;4.640;2023-04-10T11:17:47;101469.34;;;15.43;53.36
67457;BME280;54319;52.038;4.640;2023-04-10T11:20:15;101463.31;;;14.90;53.99
67457;BME280;54319;52.038;4.640;2023-04-10T11:25:45;101451.88;;;14.93;55.53
67457;BME280;54319;52.038;4.640;2023-04-10T11:28:32;101436.91;;;14.89;55.32
67457;BME280;54319;52.038;4.640;2023-04-10T11:31:13;101417.19;;;14.99;55.35
67457;BME280;54319;52.038;4.640;2023-04-10T11:33:44;101426.78;;;15.08;56.46
67457;BME280;54319;52.038;4.640;2023-04-10T11:36:13;101430.78;;;15.31;55.49
67457;BME280;54319;52.038;4.640;2023-04-10T11:38:53;101419.72;;;15.00;54.65
67457;BME280;54319;52.038;4.640;2023-04-10T11:41:20;101422.66;;;14.99;54.58
67457;BME280;54319;52.038;4.640;2023-04-10T11:43:50;101409.53;;;14.82;55.82
67457;BME280;54319;52.038;4.640;2023-04-10T11:46:17;101409.25;;;14.65;55.91
67457;BME280;54319;52.038;4.640;2023-04-10T11:48:45;101405.38;;;14.73;55.83
67457;BME280;54319;52.038;4.640;2023-04-10T11:51:12;101391.75;;;14.59;56.82
67457;BME280;54319;52.038;4.640;2023-04-10T11:53:40;101377.59;;;14.62;56.50
67457;BME280;54319;52.038;4.640;2023-04-10T11:56:18;101374.13;;;14.48;56.63
67457;BME280;54319;52.038;4.640;2023-04-10T11:58:48;101374.19;;;14.42;56.73
67457;BME280;54319;52.038;4.640;2023-04-10T12:01:14;101369.66;;;14.29;56.60
67457;BME280;54319;52.038;4.640;2023-04-10T12:03:42;101371.38;;;14.23;57.51
67457;BME280;54319;52.038;4.640;2023-04-10T12:06:11;101367.63;;;14.17;58.04
67457;BME280;54319;52.038;4.640;2023-04-10T12:08:40;101357.06;;;14.21;58.44
67457;BME280;54319;52.038;4.640;2023-04-10T12:11:09;101340.44;;;14.16;58.78
67457;BME280;54319;52.038;4.640;2023-04-10T12:13:37;101355.38;;;14.20;58.79
67457;BME280;54319;52.038;4.640;2023-04-10T12:16:05;101343.13;;;14.23;58.95
67457;BME280;54319;52.038;4.640;2023-04-10T12:18:32;101344.06;;;14.10;59.15
67457;BME280;54319;52.038;4.640;2023-04-10T12:21:00;101348.78;;;14.02;59.19
67457;BME280;54319;52.038;4.640;2023-04-10T12:23:28;101359.22;;;14.12;60.02
67457;BME280;54319;52.038;4.640;2023-04-10T12:26:12;101359.19;;;14.19;59.89
67457;BME280;54319;52.038;4.640;2023-04-10T12:28:40;101359.34;;;13.99;60.57
67457;BME280;54319;52.038;4.640;2023-04-10T12:31:07;101309.97;;;13.73;61.86
67457;BME280;54319;52.038;4.640;2023-04-10T12:33:34;101358.03;;;14.01;63.00
67457;BME280;54319;52.038;4.640;2023-04-10T12:36:01;101354.25;;;14.02;62.58
67457;BME280;54319;52.038;4.640;2023-04-10T12:38:39;101346.19;;;14.08;63.60
67457;BME280;54319;52.038;4.640;2023-04-10T12:41:08;101332.41;;;13.89;63.49
67457;BME280;54319;52.038;4.640;2023-04-10T12:43:36;101349.13;;;13.81;63.44
67457;BME280;54319;52.038;4.640;2023-04-10T12:46:04;101332.22;;;13.84;63.99
67457;BME280;54319;52.038;4.640;2023-04-10T12:48:31;101323.19;;;13.83;65.58
67457;BME280;54319;52.038;4.640;2023-04-10T12:50:58;101318.19;;;13.73;66.49
67457;BME280;54319;52.038;4.640;2023-04-10T12:53:25;101310.84;;;13.67;67.79
67457;BME280;54319;52.038;4.640;2023-04-10T12:55:58;101324.19;;;13.57;69.53
67457;BME280;54319;52.038;4.640;2023-04-10T12:58:26;101304.91;;;13.31;69.36
67457;BME280;54319;52.038;4.640;2023-04-10T13:00:57;101313.94;;;13.45;70.32
67457;BME280;54319;52.038;4.640;2023-04-10T13:03:24;101295.41;;;13.34;71.12
67457;BME280;54319;52.038;4.640;2023-04-10T13:05:51;101286.63;;;13.18;72.36
67457;BME280;54319;52.038;4.640;2023-04-10T13:08:18;101278.25;;;13.13;72.02